Time;durP1;ratioP1;P1;durP2;ratioP2;P2;SDS_P1;SDS_P2;PMS_P1;PMS_P2;Temp;Humidity;BMP_temperature;BMP_pressure;BME280_temperature;BME280_humidity;BME280_pressure;Samples;Min_cycle;Max_cycle;Signal;HPM_P1;HPM_P2
2022/05/24 00:01:32;;;;;;;4.97;2.53;;;15.10;99.90;;;;;;4975640;28;20027;-79
2022/05/24 00:03:59;;;;;;;3.67;2.28;;;15.10;99.90;;;;;;4975458;28;20031;-78
2022/05/24 00:06:27;;;;;;;4.82;2.22;;;15.10;99.90;;;;;;4975059;28;20033;-79
2022/05/24 00:08:53;;;;;;;4.85;2.28;;;15.10;99.90;;;;;;4976080;28;20023;-79
2022/05/24 00:11:18;;;;;;;6.53;2.85;;;15.10;99.90;;;;;;4976274;28;20514;-78
2022/05/24 00:13:44;;;;;;;7.43;2.80;;;15.10;99.90;;;;;;4980512;28;20092;-79
2022/05/24 00:16:10;;;;;;;6.72;2.40;;;15.10;99.90;;;;;;4995589;28;20037;-79
2022/05/24 00:18:35;;;;;;;4.47;2.30;;;15.10;99.90;;;;;;4992634;28;20058;-79
2022/05/24 00:21:03;;;;;;;6.20;2.25;;;15.10;99.90;;;;;;4976594;28;20439;-79
2022/05/24 00:23:30;;;;;;;8.52;2.78;;;15.10;99.90;;;;;;4976312;28;20105;-79
2022/05/24 00:25:59;;;;;;;5.20;2.78;;;15.10;99.90;;;;;;4976093;28;20476;-79
2022/05/24 00:28:27;;;;;;;7.88;2.67;;;15.10;99.90;;;;;;4959568;28;20038;-79
2022/05/24 00:30:54;;;;;;;7.35;3.35;;;15.10;99.90;;;;;;4975746;28;20026;-79
2022/05/24 00:33:23;;;;;;;4.65;2.70;;;15.10;99.90;;;;;;4957955;28;20027;-79
2022/05/24 00:35:49;;;;;;;6.28;2.63;;;15.10;99.90;;;;;;4976913;28;20050;-79
2022/05/24 00:38:25;;;;;;;5.13;3.00;;;15.10;99.90;;;;;;4994711;28;20460;-78
2022/05/24 00:41:25;;;;;;;4.40;2.72;;;15.10;99.90;;;;;;4994729;28;20076;-78
2022/05/24 00:44:05;;;;;;;10.90;3.33;;;15.10;99.90;;;;;;4994649;28;20046;-79
2022/05/24 00:46:42;;;;;;;6.95;3.17;;;15.20;99.90;;;;;;4994544;28;20037;-79
2022/05/24 00:49:15;;;;;;;6.07;3.08;;;15.10;99.90;;;;;;4986376;28;20033;-79
2022/05/24 00:51:47;;;;;;;8.40;3.22;;;15.10;99.90;;;;;;4974767;28;20019;-79
2022/05/24 00:54:13;;;;;;;6.28;3.05;;;15.10;99.90;;;;;;4975426;28;20057;-79
2022/05/24 00:57:00;;;;;;;6.15;2.72;;;15.10;99.90;;;;;;4992178;28;20035;-79
2022/05/24 00:59:50;;;;;;;5.85;2.60;;;15.20;99.90;;;;;;4992808;28;20777;-79
2022/05/24 01:02:16;;;;;;;7.15;3.20;;;15.20;99.90;;;;;;4993025;28;20546;-79
2022/05/24 01:04:41;;;;;;;4.68;3.40;;;15.20;99.90;;;;;;4993213;28;20129;-79
2022/05/24 01:07:07;;;;;;;6.93;3.38;;;15.20;99.90;;;;;;4993637;28;20459;-78
2022/05/24 01:09:48;;;;;;;8.18;3.28;;;15.20;99.90;;;;;;4993499;28;20050;-79
2022/05/24 01:12:26;;;;;;;6.47;3.47;;;15.20;99.90;;;;;;4976256;28;20419;-78
2022/05/24 01:14:57;;;;;;;6.15;3.30;;;15.20;99.90;;;;;;4993464;28;20028;-78
2022/05/24 01:17:23;;;;;;;7.07;2.67;;;15.10;99.90;;;;;;4976202;28;20088;-78
2022/05/24 01:19:49;;;;;;;7.55;2.90;;;15.10;99.90;;;;;;4993903;28;20034;-79
2022/05/24 01:22:39;;;;;;;8.43;3.10;;;15.10;99.90;;;;;;4993869;28;20446;-78
2022/05/24 01:25:10;;;;;;;8.00;3.00;;;15.10;99.90;;;;;;4976351;28;20419;-79
2022/05/24 01:27:36;;;;;;;6.53;3.17;;;15.10;99.90;;;;;;4993959;28;20029;-78
2022/05/24 01:30:07;;;;;;;6.85;2.70;;;15.10;99.90;;;;;;4993971;28;20033;-79
2022/05/24 01:38:04;;;;;;;5.97;2.88;;;15.00;99.90;;;;;;4994162;28;20463;-79
2022/05/24 01:40:30;;;;;;;9.05;3.00;;;15.00;99.90;;;;;;4993960;28;20069;-79
2022/05/24 01:42:56;;;;;;;7.22;2.55;;;15.00;99.90;;;;;;4993646;28;20388;-80
2022/05/24 01:46:05;;;;;;;6.95;3.20;;;14.90;99.90;;;;;;4994193;28;20022;-79
2022/05/24 01:48:43;;;;;;;5.95;2.85;;;14.90;99.90;;;;;;4983159;28;20496;-79
2022/05/24 01:51:12;;;;;;;4.90;3.10;;;14.90;99.90;;;;;;4993975;28;20022;-79
2022/05/24 01:53:42;;;;;;;6.80;3.60;;;14.90;99.90;;;;;;4993565;28;20018;-79
2022/05/24 01:56:13;;;;;;;6.45;3.30;;;14.90;99.90;;;;;;4974380;28;20027;-79
2022/05/24 01:58:40;;;;;;;9.65;2.88;;;14.90;99.90;;;;;;4974084;28;20499;-79
2022/05/24 02:01:29;;;;;;;9.80;3.10;;;14.90;99.90;;;;;;4974310;28;20424;-79
2022/05/24 02:03:54;;;;;;;8.68;3.20;;;14.90;99.90;;;;;;4974176;28;20023;-79
2022/05/24 02:06:25;;;;;;;6.50;3.40;;;14.90;99.90;;;;;;4978721;28;20041;-78
2022/05/24 02:08:52;;;;;;;7.07;3.45;;;14.80;99.90;;;;;;4975961;28;20517;-79
2022/05/24 02:11:23;;;;;;;5.75;3.10;;;14.80;99.90;;;;;;4993535;28;20023;-79
2022/05/24 02:13:50;;;;;;;7.55;3.25;;;14.80;99.90;;;;;;4993582;28;20022;-79
2022/05/24 02:16:23;;;;;;;7.30;3.17;;;14.80;99.90;;;;;;4993633;28;20066;-78
2022/05/24 02:18:52;;;;;;;10.10;3.10;;;14.80;99.90;;;;;;4975822;28;20037;-78
2022/05/24 02:21:18;;;;;;;7.18;3.00;;;14.80;99.90;;;;;;4993433;28;20058;-79
2022/05/24 02:23:48;;;;;;;9.45;3.15;;;14.80;99.90;;;;;;4993672;28;20030;-79
2022/05/24 02:26:16;;;;;;;10.13;3.20;;;14.80;99.90;;;;;;4993061;28;20022;-79
2022/05/24 02:28:42;;;;;;;6.00;3.30;;;14.80;99.90;;;;;;4987399;28;20018;-78
2022/05/24 02:31:17;;;;;;;6.03;3.30;;;14.80;99.90;;;;;;4979604;28;20038;-79
2022/05/24 02:33:43;;;;;;;4.97;3.20;;;14.70;99.90;;;;;;4970485;28;20058;-79
2022/05/24 02:36:09;;;;;;;7.25;3.35;;;14.70;99.90;;;;;;4970361;28;20096;-79
2022/05/24 02:38:34;;;;;;;6.95;2.92;;;14.70;99.90;;;;;;4969942;28;20027;-79
2022/05/24 02:43:45;;;;;;;11.27;3.85;;;14.70;99.90;;;;;;4970778;28;20034;-79
2022/05/24 02:46:11;;;;;;;6.03;3.05;;;14.70;99.90;;;;;;4971914;28;20099;-79
2022/05/24 02:48:37;;;;;;;8.52;3.50;;;14.70;99.90;;;;;;4989965;28;20063;-79
2022/05/24 02:51:10;;;;;;;7.00;3.60;;;14.60;99.90;;;;;;4988841;28;20447;-79
2022/05/24 02:53:36;;;;;;;5.68;3.05;;;14.60;99.90;;;;;;4989396;28;20023;-79
2022/05/24 02:56:04;;;;;;;6.03;3.10;;;14.60;99.90;;;;;;4980192;28;20026;-79
2022/05/24 02:58:30;;;;;;;7.03;3.30;;;14.60;99.90;;;;;;4993301;28;20364;-79
2022/05/24 03:00:55;;;;;;;10.10;3.67;;;14.60;99.90;;;;;;4993293;28;20153;-79
2022/05/24 03:03:21;;;;;;;5.13;3.05;;;14.60;99.90;;;;;;4993523;28;20038;-79
2022/05/24 03:05:46;;;;;;;6.93;2.90;;;14.50;99.90;;;;;;4993156;28;20034;-79
2022/05/24 03:10:56;;;;;;;9.35;3.40;;;14.60;99.90;;;;;;4978573;28;20085;-79
2022/05/24 03:16:11;;;;;;;4.45;3.22;;;14.50;99.90;;;;;;4973776;28;20046;-79
2022/05/24 03:18:37;;;;;;;9.20;3.63;;;14.60;99.90;;;;;;4972942;28;20058;-79
2022/05/24 03:21:03;;;;;;;8.50;3.30;;;14.60;99.90;;;;;;4987762;28;20041;-79
2022/05/24 03:23:28;;;;;;;6.85;3.30;;;14.60;99.90;;;;;;4992344;28;20026;-79
2022/05/24 03:25:54;;;;;;;6.25;3.10;;;14.50;99.90;;;;;;4992436;28;20026;-79
2022/05/24 03:28:20;;;;;;;4.70;3.28;;;14.60;99.90;;;;;;4975318;28;20777;-79
2022/05/24 03:30:46;;;;;;;6.30;3.70;;;14.60;99.90;;;;;;4993042;28;20053;-79
2022/05/24 03:33:12;;;;;;;10.60;3.70;;;14.60;99.90;;;;;;4975867;28;20073;-79
2022/05/24 03:35:38;;;;;;;5.20;3.00;;;14.60;99.90;;;;;;4993234;28;20504;-79
2022/05/24 03:38:04;;;;;;;8.50;3.28;;;14.50;99.90;;;;;;4991709;28;20121;-79
2022/05/24 03:40:30;;;;;;;7.85;3.10;;;14.60;99.90;;;;;;4993320;28;20033;-79
2022/05/24 03:42:56;;;;;;;5.50;2.88;;;14.60;99.90;;;;;;4975619;28;20026;-79
2022/05/24 03:45:23;;;;;;;5.35;3.15;;;14.60;99.90;;;;;;4992131;28;20096;-79
2022/05/24 03:47:53;;;;;;;6.10;3.00;;;14.60;99.90;;;;;;4965864;28;20385;-79
2022/05/24 03:50:20;;;;;;;16.17;3.60;;;14.60;99.90;;;;;;4988276;28;20049;-79
2022/05/24 03:52:45;;;;;;;4.30;2.90;;;14.60;99.90;;;;;;4985610;28;20033;-78
2022/05/24 03:55:11;;;;;;;4.35;3.00;;;14.60;99.90;;;;;;4968447;28;20022;-78
2022/05/24 04:00:44;;;;;;;5.60;2.80;;;14.70;99.90;;;;;;4931151;29;20043;-80
2022/05/24 04:03:10;;;;;;;5.63;3.45;;;14.70;99.90;;;;;;4931550;29;20120;-79
2022/05/24 04:05:36;;;;;;;6.68;3.33;;;14.80;99.90;;;;;;4957192;28;20046;-79
2022/05/24 04:08:02;;;;;;;8.30;3.80;;;14.80;99.90;;;;;;4983954;28;20049;-79
2022/05/24 04:10:31;;;;;;;4.70;3.15;;;14.90;99.90;;;;;;4977622;28;20026;-78
2022/05/24 04:12:57;;;;;;;6.85;3.10;;;14.90;99.90;;;;;;4987240;28;20021;-78
2022/05/24 04:15:23;;;;;;;6.03;3.15;;;14.90;99.90;;;;;;4986731;28;20022;-79
2022/05/24 04:17:51;;;;;;;5.68;2.60;;;14.90;99.90;;;;;;4986200;28;20029;-79
2022/05/24 04:20:16;;;;;;;6.93;3.83;;;14.90;99.90;;;;;;4985783;28;20047;-78
2022/05/24 04:22:43;;;;;;;7.20;3.40;;;14.90;99.90;;;;;;4982165;28;20467;-78
2022/05/24 04:25:09;;;;;;;6.05;3.15;;;15.00;99.90;;;;;;4978733;28;20037;-78
2022/05/24 04:27:35;;;;;;;8.05;3.30;;;14.90;99.90;;;;;;4955001;28;20030;-79
2022/05/24 04:30:01;;;;;;;5.47;3.10;;;14.90;99.90;;;;;;4972807;28;20026;-78
2022/05/24 04:32:26;;;;;;;9.45;4.07;;;15.00;99.90;;;;;;4987016;28;20046;-75
2022/05/24 04:34:52;;;;;;;4.82;2.95;;;15.00;99.90;;;;;;4989661;28;20137;-76
2022/05/24 04:37:18;;;;;;;4.88;2.90;;;15.00;99.90;;;;;;4983820;28;20046;-76
2022/05/24 04:39:44;;;;;;;7.13;3.05;;;15.00;99.90;;;;;;4978584;28;20105;-75
2022/05/24 04:42:19;;;;;;;6.32;3.20;;;14.90;99.90;;;;;;4961539;28;20030;-76
2022/05/24 04:44:49;;;;;;;;;;;15.00;99.90;;;;;;4979473;28;20040;-75
2022/05/24 04:47:15;;;;;;;6.72;3.15;;;15.00;99.90;;;;;;4978758;28;20011;-76
2022/05/24 04:49:43;;;;;;;4.55;2.95;;;14.90;99.90;;;;;;4961914;28;20923;-76
2022/05/24 04:52:10;;;;;;;4.25;2.90;;;15.00;99.90;;;;;;4963273;28;20041;-75
2022/05/24 04:54:38;;;;;;;6.20;3.25;;;14.90;99.90;;;;;;4983041;28;20018;-75
2022/05/24 04:57:05;;;;;;;6.55;3.20;;;15.00;99.90;;;;;;4981997;28;20046;-78
2022/05/24 04:59:31;;;;;;;6.75;3.00;;;15.00;99.90;;;;;;4987839;28;20170;-81
2022/05/24 05:02:01;;;;;;;7.22;2.72;;;15.00;99.90;;;;;;4984032;28;20490;-84
2022/05/24 05:04:28;;;;;;;5.85;2.97;;;15.00;99.90;;;;;;4978435;28;20031;-72
2022/05/24 05:06:53;;;;;;;6.97;2.65;;;15.00;99.90;;;;;;4979900;28;20035;-79
2022/05/24 05:09:20;;;;;;;4.60;2.90;;;15.00;99.90;;;;;;4990918;28;20030;-81
2022/05/24 05:11:46;;;;;;;4.78;3.28;;;15.00;99.90;;;;;;4999894;28;20609;-81
2022/05/24 05:14:11;;;;;;;6.18;3.00;;;15.00;99.90;;;;;;5011185;28;20104;-81
2022/05/24 05:16:38;;;;;;;5.65;2.90;;;15.00;99.90;;;;;;5010366;28;20030;-81
2022/05/24 05:19:06;;;;;;;7.90;3.17;;;15.10;99.90;;;;;;5008052;28;20041;-81
2022/05/24 05:21:33;;;;;;;6.47;2.67;;;15.00;99.90;;;;;;4991184;28;20030;-80
2022/05/24 05:24:00;;;;;;;7.28;3.20;;;15.10;99.90;;;;;;4991092;28;20483;-81
2022/05/24 05:26:26;;;;;;;6.47;2.90;;;15.10;99.90;;;;;;4973159;28;20026;-80
2022/05/24 05:28:52;;;;;;;5.10;2.72;;;15.10;99.90;;;;;;4990655;28;20030;-81
2022/05/24 05:31:22;;;;;;;4.43;3.03;;;15.10;99.90;;;;;;4988362;28;20057;-81
2022/05/24 05:33:48;;;;;;;7.20;2.85;;;15.10;99.90;;;;;;4972204;28;20482;-81
2022/05/24 05:36:15;;;;;;;4.82;2.83;;;15.10;99.90;;;;;;4971813;28;20058;-81
2022/05/24 05:38:45;;;;;;;4.57;2.50;;;15.10;99.90;;;;;;4990303;28;20415;-81
2022/05/24 05:41:11;;;;;;;4.18;2.60;;;15.10;99.90;;;;;;4991765;28;20030;-81
2022/05/24 05:43:37;;;;;;;4.10;2.60;;;15.20;99.90;;;;;;4974096;28;20502;-81
2022/05/24 05:46:04;;;;;;;4.65;2.75;;;15.20;99.90;;;;;;4988840;28;20034;-81
2022/05/24 05:48:29;;;;;;;4.88;2.55;;;15.20;99.90;;;;;;4974065;28;20126;-81
2022/05/24 05:50:56;;;;;;;8.00;2.88;;;15.20;99.90;;;;;;4991801;28;20109;-81
2022/05/24 05:53:22;;;;;;;7.18;2.58;;;15.20;99.90;;;;;;4992947;28;20045;-81
2022/05/24 05:55:47;;;;;;;4.35;2.65;;;15.20;99.90;;;;;;4980475;28;20031;-81
2022/05/24 05:58:13;;;;;;;5.43;3.00;;;15.30;99.90;;;;;;4956491;28;20027;-81
2022/05/24 06:00:41;;;;;;;5.28;2.72;;;15.30;99.90;;;;;;4994316;28;20034;-81
2022/05/24 06:03:07;;;;;;;6.88;2.83;;;15.30;99.90;;;;;;4992412;28;20065;-81
2022/05/24 06:05:32;;;;;;;8.80;3.05;;;15.40;99.90;;;;;;4992291;28;20026;-81
2022/05/24 06:07:59;;;;;;;4.85;2.55;;;15.40;99.90;;;;;;4973319;28;20038;-81
2022/05/24 06:10:27;;;;;;;5.65;2.75;;;15.50;99.90;;;;;;4973966;28;20030;-81
2022/05/24 06:12:52;;;;;;;9.82;3.28;;;15.50;99.90;;;;;;4973626;28;20037;-81
2022/05/24 06:15:19;;;;;;;8.10;2.90;;;15.50;99.90;;;;;;4972221;28;20476;-81
2022/05/24 06:17:48;;;;;;;4.43;2.47;;;15.60;99.90;;;;;;4990712;28;20044;-81
2022/05/24 06:20:14;;;;;;;4.55;3.17;;;15.60;99.90;;;;;;4990704;28;20026;-80
2022/05/24 06:22:40;;;;;;;7.10;2.70;;;15.60;99.90;;;;;;4988420;28;20097;-81
2022/05/24 06:25:05;;;;;;;4.18;2.58;;;15.70;99.90;;;;;;4990908;28;20026;-81
2022/05/24 06:27:31;;;;;;;6.28;2.60;;;15.70;99.90;;;;;;4991529;28;20030;-81
2022/05/24 06:29:57;;;;;;;5.95;2.80;;;15.70;99.90;;;;;;4991473;28;20069;-81
2022/05/24 06:32:22;;;;;;;6.45;2.47;;;15.80;99.90;;;;;;4978107;28;20069;-81
2022/05/24 06:34:49;;;;;;;4.35;2.40;;;15.80;99.90;;;;;;4986692;28;20758;-81
2022/05/24 06:37:24;;;;;;;7.57;2.35;;;15.70;99.90;;;;;;4989934;28;20033;-81
2022/05/24 06:39:50;;;;;;;5.00;2.55;;;15.80;99.90;;;;;;4989578;28;20554;-81
2022/05/24 06:42:16;;;;;;;4.88;2.13;;;15.80;99.90;;;;;;4980099;28;20026;-82
2022/05/24 06:44:42;;;;;;;3.13;2.15;;;15.80;99.90;;;;;;4994400;28;20022;-82
2022/05/24 06:47:08;;;;;;;8.18;2.20;;;15.80;99.90;;;;;;4995625;28;20403;-82
2022/05/24 06:49:36;;;;;;;5.10;2.63;;;15.70;99.90;;;;;;4980468;28;20039;-82
2022/05/24 06:52:03;;;;;;;4.75;2.08;;;15.70;99.90;;;;;;4960242;28;20023;-82
2022/05/24 06:54:29;;;;;;;5.82;2.58;;;15.70;99.90;;;;;;4979858;28;20018;-82
2022/05/24 06:56:55;;;;;;;6.20;2.17;;;15.60;99.90;;;;;;4957381;28;20041;-83
2022/05/24 07:02:26;;;;;;;3.65;2.00;;;15.60;99.90;;;;;;4994019;28;20066;-81
2022/05/24 07:04:57;;;;;;;5.07;2.15;;;15.60;99.90;;;;;;4982870;28;20572;-81
2022/05/24 07:07:24;;;;;;;4.22;2.28;;;15.60;99.90;;;;;;4992214;28;20042;-81
2022/05/24 07:09:50;;;;;;;3.33;1.90;;;15.70;99.90;;;;;;4975706;28;20030;-81
2022/05/24 07:12:21;;;;;;;6.07;2.47;;;15.70;99.90;;;;;;4994277;28;20041;-81
2022/05/24 07:14:46;;;;;;;5.53;2.40;;;15.70;99.90;;;;;;4975737;28;20795;-81
2022/05/24 07:17:12;;;;;;;2.88;2.22;;;15.70;99.90;;;;;;4974683;28;20035;-81
2022/05/24 07:19:38;;;;;;;4.25;2.15;;;15.60;99.90;;;;;;4987422;28;20030;-81
2022/05/24 07:22:07;;;;;;;6.90;2.72;;;15.60;99.90;;;;;;4988363;28;20030;-81
2022/05/24 07:24:33;;;;;;;5.13;2.70;;;15.60;99.90;;;;;;4968356;28;20042;-81
2022/05/24 07:26:59;;;;;;;7.25;2.53;;;15.50;99.90;;;;;;4973710;28;20081;-81
2022/05/24 07:29:26;;;;;;;5.13;2.47;;;15.50;99.90;;;;;;4959305;28;20031;-81
2022/05/24 07:31:52;;;;;;;9.38;2.90;;;15.50;99.90;;;;;;4999910;28;20465;-81
2022/05/24 07:34:18;;;;;;;5.85;2.50;;;15.50;99.90;;;;;;4988052;28;20050;-81
2022/05/24 07:36:44;;;;;;;8.63;2.63;;;15.50;99.90;;;;;;4972240;28;20030;-81
2022/05/24 07:39:10;;;;;;;5.97;2.88;;;15.40;99.90;;;;;;4994314;28;20109;-81
2022/05/24 07:47:06;;;;;;;7.68;2.95;;;15.10;99.90;;;;;;4994078;28;20045;-81
2022/05/24 07:49:33;;;;;;;7.05;2.53;;;14.90;99.90;;;;;;4993247;28;20098;-81
2022/05/24 07:52:01;;;;;;;5.43;2.97;;;14.80;99.90;;;;;;4993579;28;20019;-81
2022/05/24 07:54:26;;;;;;;7.20;2.50;;;14.70;99.90;;;;;;4986775;28;20176;-81
2022/05/24 07:56:52;;;;;;;8.70;2.97;;;14.60;99.90;;;;;;4986593;28;20122;-81
2022/05/24 07:59:18;;;;;;;5.85;2.35;;;14.60;99.90;;;;;;4994956;28;20026;-81
2022/05/24 08:01:44;;;;;;;3.60;1.90;;;14.60;99.90;;;;;;4973605;28;20125;-81
2022/05/24 08:04:09;;;;;;;5.93;2.45;;;14.60;99.90;;;;;;4991797;28;20041;-79
2022/05/24 08:06:36;;;;;;;7.10;2.53;;;14.70;99.90;;;;;;4995515;28;20029;-79
2022/05/24 08:09:02;;;;;;;4.18;2.63;;;14.60;99.90;;;;;;4994343;28;20030;-79
2022/05/24 08:11:27;;;;;;;3.88;2.17;;;14.60;99.90;;;;;;4984210;28;20062;-79
2022/05/24 08:13:53;;;;;;;5.88;2.40;;;14.70;99.90;;;;;;4976065;28;20030;-79
2022/05/24 08:16:18;;;;;;;4.15;2.08;;;14.70;99.90;;;;;;4973808;28;20038;-79
2022/05/24 08:18:44;;;;;;;3.90;2.03;;;14.80;99.90;;;;;;4980784;28;20037;-79
2022/05/24 08:21:10;;;;;;;4.70;2.38;;;14.90;99.90;;;;;;4994053;28;20054;-79
2022/05/24 08:23:35;;;;;;;6.32;2.10;;;15.00;99.90;;;;;;5005334;28;20030;-78
2022/05/24 08:26:01;;;;;;;5.22;2.30;;;15.20;99.90;;;;;;4995033;28;20054;-79
2022/05/24 08:28:28;;;;;;;5.32;1.90;;;15.30;99.90;;;;;;5011984;28;20088;-79
2022/05/24 08:30:56;;;;;;;4.85;1.92;;;15.40;99.90;;;;;;5007774;28;20470;-79
2022/05/24 08:33:23;;;;;;;2.95;1.73;;;15.40;99.90;;;;;;4993835;28;20054;-79
2022/05/24 08:35:50;;;;;;;3.55;2.00;;;15.40;99.90;;;;;;5006015;28;20069;-79
2022/05/24 08:38:16;;;;;;;3.92;1.75;;;15.40;99.90;;;;;;4973621;28;20031;-79
2022/05/24 08:40:44;;;;;;;4.65;2.05;;;15.40;99.90;;;;;;4978053;28;20049;-79
2022/05/24 08:43:33;;;;;;;3.45;1.80;;;15.40;99.90;;;;;;4985416;28;20018;-79
2022/05/24 08:48:58;;;;;;;5.38;2.53;;;15.50;99.90;;;;;;4989686;28;20447;-79
2022/05/24 08:51:30;;;;;;;2.35;1.70;;;15.50;99.90;;;;;;4985158;28;20030;-79
2022/05/24 08:54:19;;;;;;;6.20;1.88;;;15.50;99.90;;;;;;4997697;28;20117;-79
2022/05/24 08:57:02;;;;;;;4.40;1.65;;;15.40;99.90;;;;;;4992862;28;20105;-78
2022/05/24 08:59:33;;;;;;;5.75;1.63;;;15.40;99.90;;;;;;4978092;28;20042;-78
2022/05/24 09:02:02;;;;;;;5.45;1.80;;;15.40;99.90;;;;;;4986879;28;20026;-79
2022/05/24 09:04:30;;;;;;;4.05;1.70;;;15.40;99.90;;;;;;4991696;28;20026;-79
2022/05/24 09:07:17;;;;;;;4.30;1.65;;;15.20;99.90;;;;;;5012654;28;20022;-79
2022/05/24 09:10:12;;;;;;;5.18;1.70;;;15.10;99.90;;;;;;4986081;28;20022;-79
2022/05/24 09:13:10;;;;;;;5.18;2.03;;;15.10;99.90;;;;;;4993351;28;20116;-78
2022/05/24 09:15:54;;;;;;;6.97;2.38;;;15.00;99.90;;;;;;5012761;28;20073;-78
2022/05/24 09:18:34;;;;;;;6.07;1.95;;;15.00;99.90;;;;;;4980596;28;20046;-78
2022/05/24 09:20:59;;;;;;;7.22;2.10;;;15.00;99.90;;;;;;4978414;28;20813;-79
2022/05/24 09:23:45;;;;;;;4.38;2.08;;;15.10;99.90;;;;;;4977080;28;20035;-79
2022/05/24 09:26:17;;;;;;;6.00;1.85;;;15.10;99.90;;;;;;4990593;28;20034;-80
2022/05/24 09:28:57;;;;;;;7.32;1.80;;;15.20;99.90;;;;;;4960858;28;20034;-80
2022/05/24 09:31:36;;;;;;;6.53;1.70;;;15.30;99.90;;;;;;4956519;28;20042;-79
2022/05/24 09:34:04;;;;;;;4.00;1.65;;;15.30;99.90;;;;;;4993759;28;20030;-79
2022/05/24 09:36:39;;;;;;;7.00;2.28;;;15.30;99.90;;;;;;4995869;28;20054;-79
2022/05/24 09:39:22;;;;;;;4.82;2.38;;;15.40;99.90;;;;;;4994290;28;20042;-79
2022/05/24 09:42:13;;;;;;;3.42;1.67;;;15.30;99.90;;;;;;4993290;28;20093;-80
2022/05/24 09:45:04;;;;;;;5.30;2.25;;;15.30;99.90;;;;;;4959021;28;20030;-79
2022/05/24 09:47:33;;;;;;;3.13;1.73;;;15.40;99.90;;;;;;4958593;28;20719;-80
2022/05/24 09:50:31;;;;;;;6.07;2.28;;;15.30;99.90;;;;;;4974217;28;20562;-80
2022/05/24 09:53:02;;;;;;;5.20;1.80;;;15.30;99.90;;;;;;4973607;28;20495;-79
2022/05/24 09:55:55;;;;;;;5.03;2.33;;;15.30;99.90;;;;;;4982343;28;20022;-80
2022/05/24 09:58:34;;;;;;;5.47;2.20;;;15.20;99.90;;;;;;4994434;28;20030;-80
2022/05/24 10:01:30;;;;;;;5.45;2.13;;;15.20;99.90;;;;;;4956033;28;20023;-80
2022/05/24 10:04:14;;;;;;;4.50;1.80;;;15.30;99.90;;;;;;4955608;28;20023;-79
2022/05/24 10:06:42;;;;;;;4.75;2.40;;;15.30;99.90;;;;;;4968370;28;20042;-78
2022/05/24 10:09:19;;;;;;;5.32;2.22;;;15.30;99.90;;;;;;4995749;28;20093;-78
2022/05/24 10:11:54;;;;;;;6.40;1.92;;;15.30;99.90;;;;;;4981761;28;20037;-78
2022/05/24 10:14:32;;;;;;;5.88;1.92;;;15.40;99.90;;;;;;4989216;28;20019;-78
2022/05/24 10:17:16;;;;;;;4.40;2.13;;;15.50;99.90;;;;;;4996134;28;20022;-79
2022/05/24 10:20:00;;;;;;;3.55;2.05;;;15.60;99.90;;;;;;4988664;28;20030;-79
2022/05/24 10:22:34;;;;;;;3.70;1.80;;;15.70;99.90;;;;;;4979334;28;20031;-79
2022/05/24 10:25:08;;;;;;;3.93;2.00;;;15.90;99.90;;;;;;4996085;28;20037;-79
2022/05/24 10:28:10;;;;;;;4.03;2.03;;;16.10;99.90;;;;;;4995292;28;20282;-79
2022/05/24 10:30:53;;;;;;;3.67;1.63;;;16.30;99.90;;;;;;4986358;28;20808;-79
2022/05/24 10:39:34;;;;;;;3.67;1.58;;;16.90;99.90;;;;;;4976476;28;20080;-79
2022/05/24 10:42:21;;;;;;;4.60;1.70;;;17.10;99.90;;;;;;4987095;28;20030;-79
2022/05/24 10:45:24;;;;;;;4.45;1.70;;;17.10;99.90;;;;;;4975921;28;20035;-78
2022/05/24 10:48:04;;;;;;;5.47;2.05;;;17.30;99.90;;;;;;4983697;28;20102;-79
2022/05/24 10:50:43;;;;;;;5.40;2.00;;;17.30;99.90;;;;;;4990294;28;20037;-79
2022/05/24 10:53:29;;;;;;;9.73;2.30;;;17.30;99.90;;;;;;4977727;28;20027;-79
2022/05/24 10:56:22;;;;;;;7.22;3.03;;;17.30;99.90;;;;;;4984076;28;20035;-79
2022/05/24 10:58:49;;;;;;;4.57;2.90;;;17.30;99.90;;;;;;4987377;28;20494;-79
2022/05/24 11:01:28;;;;;;;3.63;2.05;;;17.20;99.90;;;;;;4987653;28;20035;-79
2022/05/24 11:04:01;;;;;;;4.28;2.00;;;17.10;99.90;;;;;;4975621;28;20153;-79
2022/05/24 11:06:37;;;;;;;2.28;1.65;;;17.00;99.90;;;;;;4975369;28;20035;-78
2022/05/24 11:09:19;;;;;;;4.95;2.08;;;16.90;99.90;;;;;;4975966;28;20488;-78
2022/05/24 11:12:20;;;;;;;4.20;1.88;;;16.90;99.90;;;;;;4975565;28;20027;-78
2022/05/24 11:14:51;;;;;;;4.15;1.65;;;16.90;99.90;;;;;;4962506;28;20548;-78
2022/05/24 11:17:20;;;;;;;5.72;1.80;;;17.10;99.90;;;;;;4957457;28;20115;-78
2022/05/24 11:19:49;;;;;;;3.92;1.60;;;17.10;99.90;;;;;;4959271;28;20066;-79
2022/05/24 11:22:56;;;;;;;4.25;1.52;;;17.10;99.90;;;;;;4986484;28;20034;-78
2022/05/24 11:25:27;;;;;;;3.42;1.65;;;17.00;99.90;;;;;;4980272;28;20034;-78
2022/05/24 11:28:23;;;;;;;5.82;2.40;;;17.00;99.90;;;;;;4975085;28;20070;-78
2022/05/24 11:30:50;;;;;;;5.57;2.20;;;16.90;99.90;;;;;;4975395;28;20560;-79
2022/05/24 11:33:30;;;;;;;5.22;2.63;;;16.80;99.90;;;;;;4958335;28;20038;-79
2022/05/24 11:36:21;;;;;;;9.40;2.42;;;16.80;99.90;;;;;;4957086;28;20047;-77
2022/05/24 11:38:51;;;;;;;4.25;1.83;;;16.80;99.90;;;;;;4975048;28;20035;-78
2022/05/24 11:41:31;;;;;;;3.50;1.90;;;16.70;99.90;;;;;;4975180;28;20146;-77
2022/05/24 11:43:59;;;;;;;3.58;1.83;;;16.40;99.90;;;;;;4976196;28;20026;-77
2022/05/24 11:46:34;;;;;;;8.18;2.25;;;16.30;99.90;;;;;;4989725;28;20066;-78
2022/05/24 11:49:19;;;;;;;9.05;2.35;;;16.30;99.90;;;;;;4994277;28;20080;-77
2022/05/24 11:51:50;;;;;;;5.00;2.55;;;16.20;99.90;;;;;;4993820;28;20037;-77
2022/05/24 11:54:18;;;;;;;5.45;2.40;;;16.20;99.90;;;;;;4992778;28;20027;-78
2022/05/24 11:57:02;;;;;;;4.07;2.10;;;16.10;99.90;;;;;;4983991;28;20062;-78
2022/05/24 11:59:48;;;;;;;3.58;1.40;;;16.00;99.90;;;;;;4974139;28;20046;-77
2022/05/24 12:02:24;;;;;;;5.93;2.40;;;15.80;99.90;;;;;;4990630;28;20042;-77
2022/05/24 12:07:56;;;;;;;2.28;1.42;;;15.30;99.90;;;;;;4981055;28;20177;-77
2022/05/24 12:10:21;;;;;;;3.72;1.75;;;15.10;99.90;;;;;;4963521;28;20034;-77
2022/05/24 12:13:02;;;;;;;6.43;1.65;;;15.00;99.90;;;;;;4993278;28;20860;-77
2022/05/24 12:15:30;;;;;;;2.03;1.27;;;14.90;99.90;;;;;;4993302;28;20029;-77
2022/05/24 12:17:59;;;;;;;3.97;1.38;;;14.70;99.90;;;;;;4975694;28;20415;-77
2022/05/24 12:20:33;;;;;;;1.98;0.90;;;14.70;99.90;;;;;;4988922;28;20054;-77
2022/05/24 12:23:08;;;;;;;5.18;1.10;;;14.70;99.90;;;;;;4974648;28;20031;-77
2022/05/24 12:26:03;;;;;;;1.70;1.10;;;14.70;99.90;;;;;;4973708;28;20101;-78
2022/05/24 12:28:49;;;;;;;3.28;1.40;;;14.70;99.90;;;;;;4986704;28;20067;-78
2022/05/24 12:31:17;;;;;;;3.10;1.30;;;14.70;99.90;;;;;;4974520;28;20117;-78
2022/05/24 12:33:59;;;;;;;3.88;1.35;;;14.70;99.90;;;;;;4982460;28;20471;-78
2022/05/24 12:36:34;;;;;;;2.45;1.20;;;14.80;99.90;;;;;;4992475;28;20058;-78
2022/05/24 12:39:03;;;;;;;2.50;1.30;;;14.90;99.90;;;;;;4975766;28;20073;-78
2022/05/24 12:41:44;;;;;;;1.90;1.20;;;14.90;99.90;;;;;;4975627;28;20106;-78
2022/05/24 12:44:21;;;;;;;2.97;1.48;;;15.00;99.90;;;;;;4982940;28;20735;-79
2022/05/24 12:46:52;;;;;;;2.33;1.13;;;15.10;99.90;;;;;;4974440;28;20409;-78
2022/05/24 12:49:23;;;;;;;2.47;1.20;;;15.20;99.90;;;;;;4973361;28;20026;-78
2022/05/24 12:52:00;;;;;;;2.65;1.38;;;15.30;99.90;;;;;;4973264;28;20031;-78
2022/05/24 12:54:29;;;;;;;2.67;1.23;;;15.50;99.90;;;;;;4968345;28;20030;-78
2022/05/24 12:57:13;;;;;;;1.50;1.20;;;15.60;99.90;;;;;;4982975;28;20046;-78
2022/05/24 12:59:41;;;;;;;2.92;1.00;;;15.80;99.90;;;;;;4974328;28;20468;-78
2022/05/24 13:02:20;;;;;;;4.18;1.20;;;15.90;99.90;;;;;;4990652;28;20042;-79
2022/05/24 13:04:45;;;;;;;2.45;1.10;;;16.10;99.90;;;;;;4991830;28;20034;-79
2022/05/24 13:07:39;;;;;;;2.83;1.15;;;16.10;99.90;;;;;;4990245;28;20154;-78
2022/05/24 13:10:22;;;;;;;4.32;1.20;;;16.20;99.90;;;;;;4994377;28;20388;-78
2022/05/24 13:12:56;;;;;;;1.70;1.00;;;16.20;99.90;;;;;;4967799;28;20026;-78
2022/05/24 13:15:44;;;;;;;1.98;1.02;;;16.10;99.90;;;;;;4994022;28;20030;-78
2022/05/24 13:18:14;;;;;;;1.95;1.23;;;16.00;99.90;;;;;;4990641;28;20400;-78
2022/05/24 13:20:55;;;;;;;4.10;1.20;;;16.00;99.90;;;;;;4981720;28;20499;-78
2022/05/24 13:23:23;;;;;;;3.50;1.20;;;15.90;99.90;;;;;;4976956;28;20037;-78
2022/05/24 13:25:51;;;;;;;1.67;1.13;;;16.00;99.90;;;;;;4994373;28;20038;-78
2022/05/24 13:28:56;;;;;;;2.42;1.05;;;16.00;99.90;;;;;;4976240;28;20546;-78
2022/05/24 13:34:30;;;;;;;1.85;1.10;;;15.90;99.90;;;;;;4993639;28;20042;-78
2022/05/24 13:36:57;;;;;;;3.28;1.20;;;16.00;99.90;;;;;;4956066;28;20121;-78
2022/05/24 13:39:26;;;;;;;2.08;1.35;;;15.90;99.90;;;;;;4982243;28;20030;-78
2022/05/24 13:42:00;;;;;;;2.70;1.10;;;15.90;99.90;;;;;;4988938;28;20432;-78
2022/05/24 13:44:34;;;;;;;3.65;1.75;;;15.90;99.90;;;;;;4990047;28;20104;-79
2022/05/24 13:47:09;;;;;;;1.88;1.20;;;16.00;99.90;;;;;;4978731;28;20030;-78
2022/05/24 13:49:37;;;;;;;3.90;1.30;;;16.00;99.90;;;;;;4985303;28;20034;-79
2022/05/24 13:52:19;;;;;;;1.88;1.15;;;16.10;99.90;;;;;;4972835;28;20037;-79